sensor_id;sensor_type;location;lat;lon;timestamp;temperature;humidity
56044;DHT22;41912;51.022;3.664;2024-02-23T00:01:47;6.80;99.90
56044;DHT22;41912;51.022;3.664;2024-02-23T00:04:13;6.80;99.90
56044;DHT22;41912;51.022;3.664;2024-02-23T00:06:39;6.80;99.90
56044;DHT22;41912;51.022;3.664;2024-02-23T00:09:04;6.70;99.90
56044;DHT22;41912;51.022;3.664;2024-02-23T00:11:31;6.80;99.90
56044;DHT22;41912;51.022;3.664;2024-02-23T00:13:58;6.70;99.90
56044;DHT22;41912;51.022;3.664;2024-02-23T00:16:24;6.50;99.90
56044;DHT22;41912;51.022;3.664;2024-02-23T00:18:51;6.70;99.90
56044;DHT22;41912;51.022;3.664;2024-02-23T00:21:17;6.70;99.90
56044;DHT22;41912;51.022;3.664;2024-02-23T00:23:43;6.70;99.90
56044;DHT22;41912;51.022;3.664;2024-02-23T00:26:08;6.70;99.90
56044;DHT22;41912;51.022;3.664;2024-02-23T00:28:34;6.80;99.90
56044;DHT22;41912;51.022;3.664;2024-02-23T00:31:00;6.70;99.90
56044;DHT22;41912;51.022;3.664;2024-02-23T00:33:26;6.60;99.90
56044;DHT22;41912;51.022;3.664;2024-02-23T00:35:51;6.60;99.90
56044;DHT22;41912;51.022;3.664;2024-02-23T00:38:17;6.70;99.90
56044;DHT22;41912;51.022;3.664;2024-02-23T00:40:42;6.60;99.90
56044;DHT22;41912;51.022;3.664;2024-02-23T00:43:08;6.50;99.90
56044;DHT22;41912;51.022;3.664;2024-02-23T00:45:34;6.50;99.90
56044;DHT22;41912;51.022;3.664;2024-02-23T00:47:59;6.40;99.90
56044;DHT22;41912;51.022;3.664;2024-02-23T00:50:25;6.40;99.90
56044;DHT22;41912;51.022;3.664;2024-02-23T00:52:52;6.40;99.90
56044;DHT22;41912;51.022;3.664;2024-02-23T00:55:18;6.40;99.90
56044;DHT22;41912;51.022;3.664;2024-02-23T00:57:44;6.40;99.90
56044;DHT22;41912;51.022;3.664;2024-02-23T01:00:11;6.40;99.90
56044;DHT22;41912;51.022;3.664;2024-02-23T01:02:40;6.40;99.90
56044;DHT22;41912;51.022;3.664;2024-02-23T01:05:06;6.40;99.90
56044;DHT22;41912;51.022;3.664;2024-02-23T01:07:34;6.40;99.90
56044;DHT22;41912;51.022;3.664;2024-02-23T01:10:00;6.30;99.90
56044;DHT22;41912;51.022;3.664;2024-02-23T01:12:26;6.30;99.90
56044;DHT22;41912;51.022;3.664;2024-02-23T01:14:51;6.30;99.90
56044;DHT22;41912;51.022;3.664;2024-02-23T01:17:17;6.30;99.90
56044;DHT22;41912;51.022;3.664;2024-02-23T01:19:43;6.30;99.90
56044;DHT22;41912;51.022;3.664;2024-02-23T01:22:09;6.30;99.90
56044;DHT22;41912;51.022;3.664;2024-02-23T01:24:35;6.40;99.90
56044;DHT22;41912;51.022;3.664;2024-02-23T01:27:00;6.30;99.90
56044;DHT22;41912;51.022;3.664;2024-02-23T01:29:27;6.40;99.90
56044;DHT22;41912;51.022;3.664;2024-02-23T01:31:52;6.50;99.90
56044;DHT22;41912;51.022;3.664;2024-02-23T01:34:20;6.20;99.90
56044;DHT22;41912;51.022;3.664;2024-02-23T01:36:46;6.20;99.90
56044;DHT22;41912;51.022;3.664;2024-02-23T01:39:12;6.20;99.90
56044;DHT22;41912;51.022;3.664;2024-02-23T01:41:37;6.20;99.90
56044;DHT22;41912;51.022;3.664;2024-02-23T01:44:03;6.20;99.90
56044;DHT22;41912;51.022;3.664;2024-02-23T01:46:29;6.20;99.90
56044;DHT22;41912;51.022;3.664;2024-02-23T01:48:56;6.20;99.90
56044;DHT22;41912;51.022;3.664;2024-02-23T01:51:22;6.30;99.90
56044;DHT22;41912;51.022;3.664;2024-02-23T01:53:48;6.30;99.90
56044;DHT22;41912;51.022;3.664;2024-02-23T01:56:14;6.30;99.90
56044;DHT22;41912;51.022;3.664;2024-02-23T01:58:43;6.30;99.90
56044;DHT22;41912;51.022;3.664;2024-02-23T02:01:10;6.30;99.90
56044;DHT22;41912;51.022;3.664;2024-02-23T02:03:38;6.30;99.90
56044;DHT22;41912;51.022;3.664;2024-02-23T02:06:09;6.30;99.90
56044;DHT22;41912;51.022;3.664;2024-02-23T02:08:35;6.30;99.90
56044;DHT22;41912;51.022;3.664;2024-02-23T02:11:00;6.20;99.90
56044;DHT22;41912;51.022;3.664;2024-02-23T02:13:28;6.40;99.90
56044;DHT22;41912;51.022;3.664;2024-02-23T02:15:54;6.30;99.90
56044;DHT22;41912;51.022;3.664;2024-02-23T02:18:19;6.30;99.90
56044;DHT22;41912;51.022;3.664;2024-02-23T02:20:54;6.40;99.90
56044;DHT22;41912;51.022;3.664;2024-02-23T02:23:20;6.40;99.90
56044;DHT22;41912;51.022;3.664;2024-02-23T02:25:52;6.40;99.90
56044;DHT22;41912;51.022;3.664;2024-02-23T02:28:18;6.50;99.90
56044;DHT22;41912;51.022;3.664;2024-02-23T02:30:44;6.50;99.90
56044;DHT22;41912;51.022;3.664;2024-02-23T02:33:09;6.50;99.90
56044;DHT22;41912;51.022;3.664;2024-02-23T02:35:35;6.60;99.90
56044;DHT22;41912;51.022;3.664;2024-02-23T02:38:00;6.50;99.90
56044;DHT22;41912;51.022;3.664;2024-02-23T02:40:26;6.50;99.90
56044;DHT22;41912;51.022;3.664;2024-02-23T02:42:51;6.50;99.90
56044;DHT22;41912;51.022;3.664;2024-02-23T02:45:17;6.60;99.90
56044;DHT22;41912;51.022;3.664;2024-02-23T02:47:43;6.60;99.90
56044;DHT22;41912;51.022;3.664;2024-02-23T02:50:09;6.60;99.90
56044;DHT22;41912;51.022;3.664;2024-02-23T02:52:34;6.60;99.90
56044;DHT22;41912;51.022;3.664;2024-02-23T02:55:00;6.50;99.90
56044;DHT22;41912;51.022;3.664;2024-02-23T02:57:25;6.50;99.90
56044;DHT22;41912;51.022;3.664;2024-02-23T02:59:51;6.50;99.90
56044;DHT22;41912;51.022;3.664;2024-02-23T03:02:17;6.40;99.90
56044;DHT22;41912;51.022;3.664;2024-02-23T03:04:49;6.40;99.90
56044;DHT22;41912;51.022;3.664;2024-02-23T03:07:16;6.50;99.90
56044;DHT22;41912;51.022;3.664;2024-02-23T03:09:41;6.50;99.90
56044;DHT22;41912;51.022;3.664;2024-02-23T03:12:07;6.50;99.90
56044;DHT22;41912;51.022;3.664;2024-02-23T03:14:33;6.50;99.90
56044;DHT22;41912;51.022;3.664;2024-02-23T03:16:59;6.50;99.90
56044;DHT22;41912;51.022;3.664;2024-02-23T03:19:25;6.40;99.90
56044;DHT22;41912;51.022;3.664;2024-02-23T03:21:51;6.50;99.90
56044;DHT22;41912;51.022;3.664;2024-02-23T03:24:17;6.50;99.90
56044;DHT22;41912;51.022;3.664;2024-02-23T03:26:43;6.50;99.90
56044;DHT22;41912;51.022;3.664;2024-02-23T03:29:09;6.50;99.90
56044;DHT22;41912;51.022;3.664;2024-02-23T03:31:35;6.60;99.90
56044;DHT22;41912;51.022;3.664;2024-02-23T03:34:02;6.60;99.90
56044;DHT22;41912;51.022;3.664;2024-02-23T03:36:28;6.50;99.90
56044;DHT22;41912;51.022;3.664;2024-02-23T03:38:54;6.50;99.90
56044;DHT22;41912;51.022;3.664;2024-02-23T03:41:19;6.60;99.90
56044;DHT22;41912;51.022;3.664;2024-02-23T03:43:45;6.60;99.90
56044;DHT22;41912;51.022;3.664;2024-02-23T03:46:11;6.50;99.90
56044;DHT22;41912;51.022;3.664;2024-02-23T03:48:37;6.50;99.90
56044;DHT22;41912;51.022;3.664;2024-02-23T03:51:04;6.50;99.90
56044;DHT22;41912;51.022;3.664;2024-02-23T03:53:30;6.50;99.90
56044;DHT22;41912;51.022;3.664;2024-02-23T03:55:57;6.50;99.90
56044;DHT22;41912;51.022;3.664;2024-02-23T03:58:23;6.50;99.90
56044;DHT22;41912;51.022;3.664;2024-02-23T04:00:48;6.50;99.90
56044;DHT22;41912;51.022;3.664;2024-02-23T04:03:14;6.60;99.90
56044;DHT22;41912;51.022;3.664;2024-02-23T04:05:39;6.50;99.90
56044;DHT22;41912;51.022;3.664;2024-02-23T04:08:05;6.60;99.90
56044;DHT22;41912;51.022;3.664;2024-02-23T04:10:31;6.60;99.90
56044;DHT22;41912;51.022;3.664;2024-02-23T04:12:58;6.60;99.90
56044;DHT22;41912;51.022;3.664;2024-02-23T04:15:23;6.50;99.90
56044;DHT22;41912;51.022;3.664;2024-02-23T04:17:49;6.50;99.90
56044;DHT22;41912;51.022;3.664;2024-02-23T04:20:15;6.50;99.90
56044;DHT22;41912;51.022;3.664;2024-02-23T04:22:40;6.50;99.90
56044;DHT22;41912;51.022;3.664;2024-02-23T04:25:06;6.50;99.90
56044;DHT22;41912;51.022;3.664;2024-02-23T04:27:32;6.60;99.90
56044;DHT22;41912;51.022;3.664;2024-02-23T04:29:57;6.60;99.90
56044;DHT22;41912;51.022;3.664;2024-02-23T04:32:23;6.60;99.90
56044;DHT22;41912;51.022;3.664;2024-02-23T04:34:49;6.50;99.90
56044;DHT22;41912;51.022;3.664;2024-02-23T04:37:14;6.50;99.90
56044;DHT22;41912;51.022;3.664;2024-02-23T04:39:40;6.60;99.90
56044;DHT22;41912;51.022;3.664;2024-02-23T04:42:07;6.50;99.90
56044;DHT22;41912;51.022;3.664;2024-02-23T04:44:34;6.40;99.90
56044;DHT22;41912;51.022;3.664;2024-02-23T04:47:00;6.40;99.90
56044;DHT22;41912;51.022;3.664;2024-02-23T04:49:26;6.40;99.90
56044;DHT22;41912;51.022;3.664;2024-02-23T04:51:51;6.30;99.90
56044;DHT22;41912;51.022;3.664;2024-02-23T04:54:17;6.30;99.90
56044;DHT22;41912;51.022;3.664;2024-02-23T04:56:43;6.30;99.90
56044;DHT22;41912;51.022;3.664;2024-02-23T04:59:08;6.40;99.90
56044;DHT22;41912;51.022;3.664;2024-02-23T05:01:37;6.40;99.90
56044;DHT22;41912;51.022;3.664;2024-02-23T05:04:03;6.30;99.90
56044;DHT22;41912;51.022;3.664;2024-02-23T05:06:29;6.30;99.90
56044;DHT22;41912;51.022;3.664;2024-02-23T05:08:55;6.30;99.90
56044;DHT22;41912;51.022;3.664;2024-02-23T05:11:21;6.30;99.90
56044;DHT22;41912;51.022;3.664;2024-02-23T05:13:47;6.30;99.90
56044;DHT22;41912;51.022;3.664;2024-02-23T05:16:15;6.30;99.90
56044;DHT22;41912;51.022;3.664;2024-02-23T05:18:41;6.30;99.90
56044;DHT22;41912;51.022;3.664;2024-02-23T05:21:07;6.30;99.90
56044;DHT22;41912;51.022;3.664;2024-02-23T05:23:33;6.30;99.90
56044;DHT22;41912;51.022;3.664;2024-02-23T05:25:59;6.30;99.90
56044;DHT22;41912;51.022;3.664;2024-02-23T05:28:24;6.30;99.90
56044;DHT22;41912;51.022;3.664;2024-02-23T05:30:51;6.30;99.90
56044;DHT22;41912;51.022;3.664;2024-02-23T05:33:17;6.30;99.90
56044;DHT22;41912;51.022;3.664;2024-02-23T05:35:46;6.30;99.90
56044;DHT22;41912;51.022;3.664;2024-02-23T05:38:17;6.30;99.90
56044;DHT22;41912;51.022;3.664;2024-02-23T05:40:43;6.30;99.90
56044;DHT22;41912;51.022;3.664;2024-02-23T05:43:09;6.30;99.90
56044;DHT22;41912;51.022;3.664;2024-02-23T05:45:35;6.40;99.90
56044;DHT22;41912;51.022;3.664;2024-02-23T05:48:00;6.40;99.90
56044;DHT22;41912;51.022;3.664;2024-02-23T05:50:26;6.40;99.90
56044;DHT22;41912;51.022;3.664;2024-02-23T05:52:52;6.40;99.90
56044;DHT22;41912;51.022;3.664;2024-02-23T05:55:19;6.40;99.90
56044;DHT22;41912;51.022;3.664;2024-02-23T05:57:44;6.40;99.90
56044;DHT22;41912;51.022;3.664;2024-02-23T06:00:10;6.40;99.90
56044;DHT22;41912;51.022;3.664;2024-02-23T06:02:37;6.40;99.90
56044;DHT22;41912;51.022;3.664;2024-02-23T06:05:04;6.40;99.90
56044;DHT22;41912;51.022;3.664;2024-02-23T06:07:29;6.40;99.90
56044;DHT22;41912;51.022;3.664;2024-02-23T06:09:56;6.30;99.90
56044;DHT22;41912;51.022;3.664;2024-02-23T06:12:22;6.40;99.90
56044;DHT22;41912;51.022;3.664;2024-02-23T06:14:48;6.40;99.90
56044;DHT22;41912;51.022;3.664;2024-02-23T06:17:13;6.40;99.90
56044;DHT22;41912;51.022;3.664;2024-02-23T06:19:39;6.50;99.90
56044;DHT22;41912;51.022;3.664;2024-02-23T06:22:05;6.50;99.90
56044;DHT22;41912;51.022;3.664;2024-02-23T06:24:30;6.50;99.90
56044;DHT22;41912;51.022;3.664;2024-02-23T06:26:56;6.50;99.90
56044;DHT22;41912;51.022;3.664;2024-02-23T06:29:23;6.50;99.90
56044;DHT22;41912;51.022;3.664;2024-02-23T06:31:49;6.50;99.90
56044;DHT22;41912;51.022;3.664;2024-02-23T06:34:15;6.50;99.90
56044;DHT22;41912;51.022;3.664;2024-02-23T06:36:41;6.50;99.90
56044;DHT22;41912;51.022;3.664;2024-02-23T06:39:07;6.60;99.90
56044;DHT22;41912;51.022;3.664;2024-02-23T06:41:33;6.60;99.90
56044;DHT22;41912;51.022;3.664;2024-02-23T06:43:59;6.60;99.90
56044;DHT22;41912;51.022;3.664;2024-02-23T06:46:25;6.60;99.90
56044;DHT22;41912;51.022;3.664;2024-02-23T06:48:50;6.60;99.90
56044;DHT22;41912;51.022;3.664;2024-02-23T06:51:16;6.70;99.90
56044;DHT22;41912;51.022;3.664;2024-02-23T06:53:42;6.60;99.90
56044;DHT22;41912;51.022;3.664;2024-02-23T06:56:07;6.70;99.90
56044;DHT22;41912;51.022;3.664;2024-02-23T07:01:07;6.70;99.90
56044;DHT22;41912;51.022;3.664;2024-02-23T07:03:36;6.70;99.90
56044;DHT22;41912;51.022;3.664;2024-02-23T07:06:02;6.70;99.90
56044;DHT22;41912;51.022;3.664;2024-02-23T07:08:28;6.80;99.90
56044;DHT22;41912;51.022;3.664;2024-02-23T07:10:55;6.80;99.90
56044;DHT22;41912;51.022;3.664;2024-02-23T07:13:22;6.80;99.90
56044;DHT22;41912;51.022;3.664;2024-02-23T07:15:48;6.80;99.90
56044;DHT22;41912;51.022;3.664;2024-02-23T07:18:13;6.80;99.90
56044;DHT22;41912;51.022;3.664;2024-02-23T07:20:40;6.80;99.90
56044;DHT22;41912;51.022;3.664;2024-02-23T07:23:05;6.90;99.90
56044;DHT22;41912;51.022;3.664;2024-02-23T07:25:32;6.90;99.90
56044;DHT22;41912;51.022;3.664;2024-02-23T07:27:57;6.70;99.90
56044;DHT22;41912;51.022;3.664;2024-02-23T07:30:23;6.70;99.90
56044;DHT22;41912;51.022;3.664;2024-02-23T07:32:49;6.70;99.90
56044;DHT22;41912;51.022;3.664;2024-02-23T07:35:15;6.70;99.90
56044;DHT22;41912;51.022;3.664;2024-02-23T07:37:41;6.70;99.90
56044;DHT22;41912;51.022;3.664;2024-02-23T07:40:07;6.70;99.90
56044;DHT22;41912;51.022;3.664;2024-02-23T07:42:33;6.70;99.90
56044;DHT22;41912;51.022;3.664;2024-02-23T07:45:02;6.70;99.90
56044;DHT22;41912;51.022;3.664;2024-02-23T07:47:30;6.60;99.90
56044;DHT22;41912;51.022;3.664;2024-02-23T07:49:55;6.70;99.90
56044;DHT22;41912;51.022;3.664;2024-02-23T07:52:21;6.70;99.90
56044;DHT22;41912;51.022;3.664;2024-02-23T07:54:50;6.90;99.90
56044;DHT22;41912;51.022;3.664;2024-02-23T07:57:17;6.80;99.90
56044;DHT22;41912;51.022;3.664;2024-02-23T07:59:43;6.80;99.90
56044;DHT22;41912;51.022;3.664;2024-02-23T08:02:09;6.90;99.90
56044;DHT22;41912;51.022;3.664;2024-02-23T08:04:35;6.90;99.90
56044;DHT22;41912;51.022;3.664;2024-02-23T08:07:01;7.00;99.90
56044;DHT22;41912;51.022;3.664;2024-02-23T08:09:26;7.00;99.90
56044;DHT22;41912;51.022;3.664;2024-02-23T08:11:52;7.00;99.90
56044;DHT22;41912;51.022;3.664;2024-02-23T08:14:17;7.00;99.90
56044;DHT22;41912;51.022;3.664;2024-02-23T08:19:11;7.00;99.90
56044;DHT22;41912;51.022;3.664;2024-02-23T08:21:37;7.00;99.90
56044;DHT22;41912;51.022;3.664;2024-02-23T08:24:03;7.00;99.90
56044;DHT22;41912;51.022;3.664;2024-02-23T08:26:29;7.10;99.90
56044;DHT22;41912;51.022;3.664;2024-02-23T08:28:57;7.10;99.90
56044;DHT22;41912;51.022;3.664;2024-02-23T08:31:23;7.10;99.90
56044;DHT22;41912;51.022;3.664;2024-02-23T08:33:49;7.10;99.90
56044;DHT22;41912;51.022;3.664;2024-02-23T08:36:15;7.10;99.90
56044;DHT22;41912;51.022;3.664;2024-02-23T08:38:41;7.20;99.90
56044;DHT22;41912;51.022;3.664;2024-02-23T08:41:06;7.10;99.90
56044;DHT22;41912;51.022;3.664;2024-02-23T08:43:32;7.20;99.90
56044;DHT22;41912;51.022;3.664;2024-02-23T08:45:57;7.10;99.90
56044;DHT22;41912;51.022;3.664;2024-02-23T08:48:23;7.10;99.90
56044;DHT22;41912;51.022;3.664;2024-02-23T08:50:49;7.10;99.90
56044;DHT22;41912;51.022;3.664;2024-02-23T08:53:15;7.10;99.90
56044;DHT22;41912;51.022;3.664;2024-02-23T08:55:40;7.20;99.90
56044;DHT22;41912;51.022;3.664;2024-02-23T08:58:06;7.20;99.90
56044;DHT22;41912;51.022;3.664;2024-02-23T09:00:32;7.30;99.90
56044;DHT22;41912;51.022;3.664;2024-02-23T09:02:58;7.40;99.90
56044;DHT22;41912;51.022;3.664;2024-02-23T09:05:23;7.40;99.90
56044;DHT22;41912;51.022;3.664;2024-02-23T09:07:49;7.40;99.90
56044;DHT22;41912;51.022;3.664;2024-02-23T09:10:14;7.40;99.90
56044;DHT22;41912;51.022;3.664;2024-02-23T09:12:40;7.40;99.90
56044;DHT22;41912;51.022;3.664;2024-02-23T09:15:06;7.40;99.90
56044;DHT22;41912;51.022;3.664;2024-02-23T09:17:33;7.40;99.90
56044;DHT22;41912;51.022;3.664;2024-02-23T09:19:58;7.40;99.90
56044;DHT22;41912;51.022;3.664;2024-02-23T09:22:24;7.40;99.90
56044;DHT22;41912;51.022;3.664;2024-02-23T09:24:49;7.50;99.90
56044;DHT22;41912;51.022;3.664;2024-02-23T09:27:15;7.50;99.90
56044;DHT22;41912;51.022;3.664;2024-02-23T09:29:41;7.50;99.90
56044;DHT22;41912;51.022;3.664;2024-02-23T09:32:07;7.50;99.90
56044;DHT22;41912;51.022;3.664;2024-02-23T09:34:33;7.50;99.90
56044;DHT22;41912;51.022;3.664;2024-02-23T09:36:59;7.50;99.90
56044;DHT22;41912;51.022;3.664;2024-02-23T09:39:25;7.50;99.90
56044;DHT22;41912;51.022;3.664;2024-02-23T09:41:54;7.50;99.90
56044;DHT22;41912;51.022;3.664;2024-02-23T09:44:20;7.50;99.90
56044;DHT22;41912;51.022;3.664;2024-02-23T09:46:49;7.50;99.90
56044;DHT22;41912;51.022;3.664;2024-02-23T09:49:15;7.50;99.90
56044;DHT22;41912;51.022;3.664;2024-02-23T09:51:42;7.50;99.90
56044;DHT22;41912;51.022;3.664;2024-02-23T09:54:09;7.50;99.90
56044;DHT22;41912;51.022;3.664;2024-02-23T09:56:35;7.50;99.90
56044;DHT22;41912;51.022;3.664;2024-02-23T09:59:03;7.50;99.90
56044;DHT22;41912;51.022;3.664;2024-02-23T10:01:30;7.50;99.90
56044;DHT22;41912;51.022;3.664;2024-02-23T10:03:57;7.40;99.90
56044;DHT22;41912;51.022;3.664;2024-02-23T10:06:25;7.50;99.90
56044;DHT22;41912;51.022;3.664;2024-02-23T10:08:51;7.50;99.90
56044;DHT22;41912;51.022;3.664;2024-02-23T10:11:23;7.60;99.90
56044;DHT22;41912;51.022;3.664;2024-02-23T10:13:49;7.60;99.90
56044;DHT22;41912;51.022;3.664;2024-02-23T10:16:16;7.70;99.90
56044;DHT22;41912;51.022;3.664;2024-02-23T10:18:42;7.80;99.90
56044;DHT22;41912;51.022;3.664;2024-02-23T10:21:07;7.70;99.90
56044;DHT22;41912;51.022;3.664;2024-02-23T10:23:33;7.70;99.90
56044;DHT22;41912;51.022;3.664;2024-02-23T10:25:59;7.80;99.90
56044;DHT22;41912;51.022;3.664;2024-02-23T10:28:24;7.80;99.90
56044;DHT22;41912;51.022;3.664;2024-02-23T10:30:50;7.80;99.90
56044;DHT22;41912;51.022;3.664;2024-02-23T10:33:20;7.90;99.90
56044;DHT22;41912;51.022;3.664;2024-02-23T10:35:51;8.00;99.90
56044;DHT22;41912;51.022;3.664;2024-02-23T10:38:18;8.00;99.90
56044;DHT22;41912;51.022;3.664;2024-02-23T10:40:45;8.20;99.90
56044;DHT22;41912;51.022;3.664;2024-02-23T10:43:17;8.10;99.90
56044;DHT22;41912;51.022;3.664;2024-02-23T10:45:45;8.20;99.90
56044;DHT22;41912;51.022;3.664;2024-02-23T10:48:11;8.20;99.90
56044;DHT22;41912;51.022;3.664;2024-02-23T10:50:37;8.20;99.90
56044;DHT22;41912;51.022;3.664;2024-02-23T10:53:07;8.20;99.90
56044;DHT22;41912;51.022;3.664;2024-02-23T10:55:36;8.30;99.90
56044;DHT22;41912;51.022;3.664;2024-02-23T10:58:02;8.30;99.90
56044;DHT22;41912;51.022;3.664;2024-02-23T11:00:29;8.30;99.90
56044;DHT22;41912;51.022;3.664;2024-02-23T11:02:55;8.30;99.90
56044;DHT22;41912;51.022;3.664;2024-02-23T11:05:22;8.30;99.90
56044;DHT22;41912;51.022;3.664;2024-02-23T11:07:48;8.30;99.90
56044;DHT22;41912;51.022;3.664;2024-02-23T11:10:17;8.20;99.90
56044;DHT22;41912;51.022;3.664;2024-02-23T11:12:44;8.10;99.90
56044;DHT22;41912;51.022;3.664;2024-02-23T11:15:29;8.10;99.90
56044;DHT22;41912;51.022;3.664;2024-02-23T11:17:55;8.20;99.90
56044;DHT22;41912;51.022;3.664;2024-02-23T11:20:21;8.20;99.90
56044;DHT22;41912;51.022;3.664;2024-02-23T11:22:53;8.20;99.90
56044;DHT22;41912;51.022;3.664;2024-02-23T11:25:19;8.10;99.90
56044;DHT22;41912;51.022;3.664;2024-02-23T11:27:49;8.20;99.90
56044;DHT22;41912;51.022;3.664;2024-02-23T11:30:17;8.20;99.90
56044;DHT22;41912;51.022;3.664;2024-02-23T11:32:45;8.20;99.90
56044;DHT22;41912;51.022;3.664;2024-02-23T11:35:13;8.40;99.90
56044;DHT22;41912;51.022;3.664;2024-02-23T11:37:53;8.40;99.90
56044;DHT22;41912;51.022;3.664;2024-02-23T11:40:39;8.50;99.90
56044;DHT22;41912;51.022;3.664;2024-02-23T11:43:04;8.50;99.90
56044;DHT22;41912;51.022;3.664;2024-02-23T11:45:31;8.40;99.90
56044;DHT22;41912;51.022;3.664;2024-02-23T11:47:56;8.40;99.90
56044;DHT22;41912;51.022;3.664;2024-02-23T11:50:22;8.40;99.90
56044;DHT22;41912;51.022;3.664;2024-02-23T11:52:48;8.30;99.90
56044;DHT22;41912;51.022;3.664;2024-02-23T11:55:19;8.30;99.90
56044;DHT22;41912;51.022;3.664;2024-02-23T11:57:47;8.40;99.90
56044;DHT22;41912;51.022;3.664;2024-02-23T12:00:13;8.30;99.90
56044;DHT22;41912;51.022;3.664;2024-02-23T12:02:39;8.30;99.90
56044;DHT22;41912;51.022;3.664;2024-02-23T12:05:05;8.40;99.90
56044;DHT22;41912;51.022;3.664;2024-02-23T12:07:43;8.40;99.90
56044;DHT22;41912;51.022;3.664;2024-02-23T12:10:09;8.50;99.90
56044;DHT22;41912;51.022;3.664;2024-02-23T12:12:36;8.60;99.90
56044;DHT22;41912;51.022;3.664;2024-02-23T12:15:02;8.50;99.90
56044;DHT22;41912;51.022;3.664;2024-02-23T12:17:28;8.60;99.90
56044;DHT22;41912;51.022;3.664;2024-02-23T12:20:01;8.60;99.90
56044;DHT22;41912;51.022;3.664;2024-02-23T12:22:26;8.70;99.90
56044;DHT22;41912;51.022;3.664;2024-02-23T12:24:52;8.70;99.90
56044;DHT22;41912;51.022;3.664;2024-02-23T12:27:18;8.70;99.90
56044;DHT22;41912;51.022;3.664;2024-02-23T12:29:53;8.80;99.90
56044;DHT22;41912;51.022;3.664;2024-02-23T12:32:23;8.90;99.90
56044;DHT22;41912;51.022;3.664;2024-02-23T12:34:48;9.10;99.90
56044;DHT22;41912;51.022;3.664;2024-02-23T12:37:18;9.10;99.90
56044;DHT22;41912;51.022;3.664;2024-02-23T12:39:46;9.20;99.90
56044;DHT22;41912;51.022;3.664;2024-02-23T12:42:12;9.20;99.90
56044;DHT22;41912;51.022;3.664;2024-02-23T12:47:03;9.40;99.90
56044;DHT22;41912;51.022;3.664;2024-02-23T12:49:29;9.40;99.90
56044;DHT22;41912;51.022;3.664;2024-02-23T12:51:55;9.40;99.90
56044;DHT22;41912;51.022;3.664;2024-02-23T12:54:21;9.50;99.90
56044;DHT22;41912;51.022;3.664;2024-02-23T12:56:46;9.50;99.90
56044;DHT22;41912;51.022;3.664;2024-02-23T12:59:12;9.50;99.90
56044;DHT22;41912;51.022;3.664;2024-02-23T13:01:38;9.60;99.90
56044;DHT22;41912;51.022;3.664;2024-02-23T13:04:05;9.60;99.90
56044;DHT22;41912;51.022;3.664;2024-02-23T13:06:38;9.70;99.90
56044;DHT22;41912;51.022;3.664;2024-02-23T13:09:05;9.70;99.90
56044;DHT22;41912;51.022;3.664;2024-02-23T13:11:34;9.80;99.90
56044;DHT22;41912;51.022;3.664;2024-02-23T13:14:00;9.90;99.90
56044;DHT22;41912;51.022;3.664;2024-02-23T13:16:26;9.90;99.90
56044;DHT22;41912;51.022;3.664;2024-02-23T13:18:51;9.90;99.90
56044;DHT22;41912;51.022;3.664;2024-02-23T13:21:17;10.10;99.90
56044;DHT22;41912;51.022;3.664;2024-02-23T13:23:43;10.10;99.90
56044;DHT22;41912;51.022;3.664;2024-02-23T13:26:09;10.20;99.90
56044;DHT22;41912;51.022;3.664;2024-02-23T13:28:36;10.40;99.90
56044;DHT22;41912;51.022;3.664;2024-02-23T13:31:02;10.40;99.90
56044;DHT22;41912;51.022;3.664;2024-02-23T13:33:28;10.30;99.90
56044;DHT22;41912;51.022;3.664;2024-02-23T13:38:40;10.30;99.90
56044;DHT22;41912;51.022;3.664;2024-02-23T13:41:07;10.30;99.90
56044;DHT22;41912;51.022;3.664;2024-02-23T13:43:32;10.40;99.90
56044;DHT22;41912;51.022;3.664;2024-02-23T13:46:01;10.50;99.90
56044;DHT22;41912;51.022;3.664;2024-02-23T13:48:29;10.50;99.90
56044;DHT22;41912;51.022;3.664;2024-02-23T13:50:54;10.50;99.90
56044;DHT22;41912;51.022;3.664;2024-02-23T13:53:20;10.40;99.90
56044;DHT22;41912;51.022;3.664;2024-02-23T13:55:46;10.30;99.90
56044;DHT22;41912;51.022;3.664;2024-02-23T13:58:11;10.30;99.90
56044;DHT22;41912;51.022;3.664;2024-02-23T14:00:37;10.40;99.90
56044;DHT22;41912;51.022;3.664;2024-02-23T14:05:54;10.50;99.90
56044;DHT22;41912;51.022;3.664;2024-02-23T14:08:20;10.60;99.90
56044;DHT22;41912;51.022;3.664;2024-02-23T14:10:45;10.60;99.90
56044;DHT22;41912;51.022;3.664;2024-02-23T14:13:11;10.50;99.90
56044;DHT22;41912;51.022;3.664;2024-02-23T14:15:37;10.50;99.90
56044;DHT22;41912;51.022;3.664;2024-02-23T14:18:02;10.50;99.90
56044;DHT22;41912;51.022;3.664;2024-02-23T14:20:28;10.20;99.90
56044;DHT22;41912;51.022;3.664;2024-02-23T14:22:53;9.90;99.90
56044;DHT22;41912;51.022;3.664;2024-02-23T14:25:19;9.80;99.90
56044;DHT22;41912;51.022;3.664;2024-02-23T14:27:45;9.60;99.90
56044;DHT22;41912;51.022;3.664;2024-02-23T14:30:10;9.60;99.90
56044;DHT22;41912;51.022;3.664;2024-02-23T14:32:36;9.40;99.90
56044;DHT22;41912;51.022;3.664;2024-02-23T14:35:05;9.10;99.90
56044;DHT22;41912;51.022;3.664;2024-02-23T14:39:56;8.80;99.90
56044;DHT22;41912;51.022;3.664;2024-02-23T14:42:21;8.80;99.90
56044;DHT22;41912;51.022;3.664;2024-02-23T14:44:47;8.90;99.90
56044;DHT22;41912;51.022;3.664;2024-02-23T14:47:15;8.90;99.90
56044;DHT22;41912;51.022;3.664;2024-02-23T14:49:41;9.00;99.90
56044;DHT22;41912;51.022;3.664;2024-02-23T14:52:07;9.20;99.90
56044;DHT22;41912;51.022;3.664;2024-02-23T14:54:32;9.40;99.90
56044;DHT22;41912;51.022;3.664;2024-02-23T14:56:59;9.50;99.90
56044;DHT22;41912;51.022;3.664;2024-02-23T14:59:24;9.60;99.90
56044;DHT22;41912;51.022;3.664;2024-02-23T15:01:50;9.70;99.90
56044;DHT22;41912;51.022;3.664;2024-02-23T15:04:16;9.70;99.90
56044;DHT22;41912;51.022;3.664;2024-02-23T15:06:42;9.90;99.90
56044;DHT22;41912;51.022;3.664;2024-02-23T15:09:13;9.90;99.90
56044;DHT22;41912;51.022;3.664;2024-02-23T15:11:40;10.10;99.90
56044;DHT22;41912;51.022;3.664;2024-02-23T15:14:05;10.20;99.90
56044;DHT22;41912;51.022;3.664;2024-02-23T15:16:31;10.30;99.90
56044;DHT22;41912;51.022;3.664;2024-02-23T15:18:57;10.30;99.90
56044;DHT22;41912;51.022;3.664;2024-02-23T15:21:23;10.40;99.90
56044;DHT22;41912;51.022;3.664;2024-02-23T15:23:49;10.50;99.90
56044;DHT22;41912;51.022;3.664;2024-02-23T15:26:14;10.70;99.90
56044;DHT22;41912;51.022;3.664;2024-02-23T15:31:14;10.90;99.90
56044;DHT22;41912;51.022;3.664;2024-02-23T15:33:40;11.00;99.90
56044;DHT22;41912;51.022;3.664;2024-02-23T15:36:06;11.00;99.90
56044;DHT22;41912;51.022;3.664;2024-02-23T15:38:34;10.90;99.90
56044;DHT22;41912;51.022;3.664;2024-02-23T15:41:01;10.90;99.90
56044;DHT22;41912;51.022;3.664;2024-02-23T15:43:27;11.00;99.90
56044;DHT22;41912;51.022;3.664;2024-02-23T15:45:53;11.00;99.90
56044;DHT22;41912;51.022;3.664;2024-02-23T15:48:19;11.10;99.90
56044;DHT22;41912;51.022;3.664;2024-02-23T15:50:44;10.90;99.90
56044;DHT22;41912;51.022;3.664;2024-02-23T15:53:10;10.70;99.90
56044;DHT22;41912;51.022;3.664;2024-02-23T15:55:36;10.50;99.90
56044;DHT22;41912;51.022;3.664;2024-02-23T15:58:02;10.30;99.90